Moby Aki — IBVV — position and weather

sailwx.info

Track history (hours):
 
Tides and Currents Weather Stations Pressure Air Temp Water Temp Dewpoint Dewpoint Depression Visibility Wind Speed Wind Dir Waves Ship Positions

Moby Aki

Last reported at 2016-Aug-29 01:34 UTC. Time now 2016-Aug-29 01:55 UTC.
Position N 42°44' E 009°56'.

Length 175 m; draft 6.9 m.

Type: Ship. MMSI: 247132400.

Date/timePositionNaut miles runAvg speedWind from/ knotsBaromVisibWave heightAir tempDewpointWater temp
2016-Aug-29 01:34N 42°44' E 009°56'2323.3
2016-Aug-29 00:33N 42°21' E 009°53'4723.6
2016-Aug-28 22:33N 41°34' E 009°48'2323.4
2016-Aug-28 21:34N 41°11' E 009°43'10 3.0
2016-Aug-28 18:12N 41°01' E 009°42'4326.5
2016-Aug-28 16:33N 41°42' E 009°57'2727.0
2016-Aug-28 15:33N 42°09' E 010°06'2626.2
2016-Aug-28 14:34N 42°32' E 010°20'2625.5
2016-Aug-28 13:34N 42°56' E 010°34'1 0.7
2016-Aug-28 12:34N 42°56' E 010°33'2221.8
2016-Aug-28 11:33N 42°35' E 010°23'2825.8
2016-Aug-28 10:27N 42°10' E 010°06'5925.7
2016-Aug-28 08:10N 41°13' E 009°46'4 1.1
2016-Aug-28 04:33N 41°10' E 009°43'5926.5
2016-Aug-28 02:21N 42°08' E 009°52'2126.4
2016-Aug-28 01:33N 42°29' E 009°55'2626.4
2016-Aug-28 00:34N 42°55' E 010°02'2726.6
2016-Aug-27 23:34N 43°20' E 010°10'1413.4
2016-Aug-27 22:31N 43°33' E 010°18'0 0.0
2016-Aug-27 21:31N 43°33' E 010°18'1515.4
2016-Aug-27 20:34N 43°19' E 010°11'2626.1
2016-Aug-27 19:34N 42°54' E 010°02'2626.1
2016-Aug-27 18:33N 42°28' E 009°57'8313.3
2016-Aug-27 12:17N 41°05' E 009°43'5026.7
2016-Aug-27 10:24N 41°55' E 009°52'2226.6
2016-Aug-27 09:34N 42°17' E 009°56'2726.6
2016-Aug-27 08:33N 42°44' E 009°60'2726.6
2016-Aug-27 07:34N 43°10' E 010°07'2423.5
2016-Aug-27 06:33N 43°32' E 010°17'5 2.6
2016-Aug-27 04:34N 43°28' E 010°13'2626.0
2016-Aug-27 03:34N 43°03' E 010°05'2626.0
2016-Aug-27 02:34N 42°37' E 009°58'2626.2
2016-Aug-27 01:33N 42°11' E 009°54'4924.7
2016-Aug-26 23:34N 41°22' E 009°46'2322.7
2016-Aug-26 22:34N 40°60' E 009°41'21 5.1
2016-Aug-26 18:29N 41°12' E 010°04'4622.7
2016-Aug-26 16:26N 41°39' E 010°54'2123.5
2016-Aug-26 15:33N 41°52' E 011°16'73 5.2
2016-Aug-26 01:34N 42°35' E 009°57'2626.2
2016-Aug-26 00:34N 43°01' E 010°04'2626.1
2016-Aug-25 23:34N 43°26' E 010°12'8 7.8
2016-Aug-25 22:31N 43°33' E 010°18'0 0.0
2016-Aug-25 21:31N 43°33' E 010°18'1010.6
2016-Aug-25 20:34N 43°24' E 010°12'2625.7
2016-Aug-25 19:34N 42°59' E 010°03'2625.7
2016-Aug-25 18:33N 42°34' E 009°57'1 0.1
2016-Aug-25 08:33N 42°33' E 009°58'2626.5
2016-Aug-25 07:34N 42°59' E 010°04'2626.4
2016-Aug-25 06:34N 43°25' E 010°11'9 4.7
2016-Aug-25 04:33N 43°33' E 010°18'5 4.7
2016-Aug-25 03:33N 43°29' E 010°14'2323.5
2016-Aug-25 02:34N 43°07' E 010°06'2423.4
2016-Aug-25 01:33N 42°44' E 009°59'54 5.4
2016-Aug-24 15:33N 41°50' E 009°59'3027.0
2016-Aug-24 14:27N 42°19' E 010°09'2726.6
2016-Aug-24 13:26N 42°42' E 010°29'27 2.0
2016-Aug-24 00:05N 42°30' E 009°57'1222.6
2016-Aug-23 23:33N 42°41' E 009°59'2323.1
2016-Aug-23 22:33N 43°04' E 010°05'2322.8
2016-Aug-23 21:34N 43°26' E 010°12'8 7.9
2016-Aug-23 20:32N 43°33' E 010°18'0 0.0
2016-Aug-23 19:31N 43°33' E 010°18'0 0.0
2016-Aug-23 18:31N 43°33' E 010°18'0 0.0
2016-Aug-23 17:31N 43°33' E 010°18'0 0.0
2016-Aug-23 16:33N 43°33' E 010°18'9 9.1
2016-Aug-23 15:33N 43°25' E 010°11'2625.6
2016-Aug-23 14:33N 43°00' E 010°04'2525.1
2016-Aug-23 13:33N 42°36' E 009°58'27 2.1
2016-Aug-23 00:34N 43°02' E 010°04'2626.2
2016-Aug-22 23:34N 43°28' E 010°12'7 6.6
2016-Aug-22 22:31N 43°33' E 010°18'0 0.0
2016-Aug-22 21:33N 43°33' E 010°18'6 6.2
2016-Aug-22 20:34N 43°28' E 010°13'2525.5
2016-Aug-22 19:34N 43°03' E 010°04'2525.2
2016-Aug-22 18:33N 42°39' E 009°58'2626.0
2016-Aug-22 17:34N 42°13' E 009°54'5125.4
2016-Aug-22 15:32N 41°22' E 009°46'10112.6
2016-Aug-22 07:34N 43°02' E 010°01'2626.5
2016-Aug-22 06:34N 43°27' E 010°11'8 7.7
2016-Aug-22 05:33N 43°33' E 010°18'0 0.0
2016-Aug-22 04:34N 43°33' E 010°18'6 5.8
2016-Aug-22 03:34N 43°29' E 010°13'2424.0
2016-Aug-22 02:33N 43°06' E 010°01'2323.5
2016-Aug-22 01:33N 42°43' E 009°54'28 2.8
2016-Aug-21 15:33N 42°17' E 010°09'2726.5
2016-Aug-21 14:33N 42°40' E 010°28'1615.3
2016-Aug-21 13:28N 42°56' E 010°33'4 4.1
2016-Aug-21 12:28N 42°52' E 010°33'10413.1
2016-Aug-21 04:34N 41°15' E 009°45'5426.6
2016-Aug-21 02:31N 42°08' E 009°53'3626.0
2016-Aug-21 01:08N 42°44' E 010°00'1626.4
2016-Aug-21 00:32N 42°60' E 010°03'2626.3
2016-Aug-20 23:34N 43°25' E 010°11'10 9.4
2016-Aug-20 22:31N 43°33' E 010°18'0 0.0
2016-Aug-20 21:31N 43°33' E 010°18'1314.0
2016-Aug-20 20:34N 43°21' E 010°10'2626.0
2016-Aug-20 19:33N 42°56' E 010°03'2826.2
2016-Aug-20 18:30N 42°28' E 009°57'2726.6
2016-Aug-20 17:29N 42°01' E 009°52'3325.8
2016-Aug-20 16:14N 41°29' E 009°47'1725.9
2016-Aug-20 15:33N 41°12' E 009°44'14 4.3
2016-Aug-20 12:17N 40°58' E 009°40'10726.1
2016-Aug-20 08:11N 42°44' E 010°01'1626.4
2016-Aug-20 07:34N 43°00' E 010°06'2626.1
2016-Aug-20 06:33N 43°26' E 010°12'9 8.6
2016-Aug-20 05:33N 43°33' E 010°18'0 0.0
2016-Aug-20 04:34N 43°33' E 010°18'6 5.9
2016-Aug-20 03:34N 43°28' E 010°13'2322.8
2016-Aug-20 02:34N 43°06' E 010°06'2323.3
2016-Aug-20 01:33N 42°43' E 010°00'10123.4
2016-Aug-19 21:16N 41°03' E 009°42'11 4.1
2016-Aug-19 18:30N 40°55' E 009°32'1617.0
2016-Aug-19 17:33N 41°04' E 009°50'  
Track history (hours):
 
Tides and Currents Weather Stations Pressure Air Temp Water Temp Dewpoint Dewpoint Depression Visibility Wind Speed Wind Dir Waves Ship Positions

Moby Aki

Last reported at 2016-Aug-29 01:34 UTC. Time now 2016-Aug-29 01:55 UTC.
Position N 42°44' E 009°56'.

Length 175 m; draft 6.9 m.

Type: Ship. MMSI: 247132400.

Date/timePositionNaut miles runAvg speedWind from/ knotsBaromVisibWave heightAir tempDewpointWater temp
2016-Aug-29 01:34N 42°44' E 009°56'2323.3
2016-Aug-29 00:33N 42°21' E 009°53'4723.6
2016-Aug-28 22:33N 41°34' E 009°48'2323.4
2016-Aug-28 21:34N 41°11' E 009°43'10 3.0
2016-Aug-28 18:12N 41°01' E 009°42'4326.5
2016-Aug-28 16:33N 41°42' E 009°57'2727.0
2016-Aug-28 15:33N 42°09' E 010°06'2626.2
2016-Aug-28 14:34N 42°32' E 010°20'2625.5
2016-Aug-28 13:34N 42°56' E 010°34'1 0.7
2016-Aug-28 12:34N 42°56' E 010°33'2221.8
2016-Aug-28 11:33N 42°35' E 010°23'2825.8
2016-Aug-28 10:27N 42°10' E 010°06'5925.7
2016-Aug-28 08:10N 41°13' E 009°46'4 1.1
2016-Aug-28 04:33N 41°10' E 009°43'5926.5
2016-Aug-28 02:21N 42°08' E 009°52'2126.4
2016-Aug-28 01:33N 42°29' E 009°55'2626.4
2016-Aug-28 00:34N 42°55' E 010°02'2726.6
2016-Aug-27 23:34N 43°20' E 010°10'1413.4
2016-Aug-27 22:31N 43°33' E 010°18'0 0.0
2016-Aug-27 21:31N 43°33' E 010°18'1515.4
2016-Aug-27 20:34N 43°19' E 010°11'2626.1
2016-Aug-27 19:34N 42°54' E 010°02'2626.1
2016-Aug-27 18:33N 42°28' E 009°57'8313.3
2016-Aug-27 12:17N 41°05' E 009°43'5026.7
2016-Aug-27 10:24N 41°55' E 009°52'2226.6
2016-Aug-27 09:34N 42°17' E 009°56'2726.6
2016-Aug-27 08:33N 42°44' E 009°60'2726.6
2016-Aug-27 07:34N 43°10' E 010°07'2423.5
2016-Aug-27 06:33N 43°32' E 010°17'5 2.6
2016-Aug-27 04:34N 43°28' E 010°13'2626.0
2016-Aug-27 03:34N 43°03' E 010°05'2626.0
2016-Aug-27 02:34N 42°37' E 009°58'2626.2
2016-Aug-27 01:33N 42°11' E 009°54'4924.7
2016-Aug-26 23:34N 41°22' E 009°46'2322.7
2016-Aug-26 22:34N 40°60' E 009°41'21 5.1
2016-Aug-26 18:29N 41°12' E 010°04'4622.7
2016-Aug-26 16:26N 41°39' E 010°54'2123.5
2016-Aug-26 15:33N 41°52' E 011°16'73 5.2
2016-Aug-26 01:34N 42°35' E 009°57'2626.2
2016-Aug-26 00:34N 43°01' E 010°04'2626.1
2016-Aug-25 23:34N 43°26' E 010°12'8 7.8
2016-Aug-25 22:31N 43°33' E 010°18'0 0.0
2016-Aug-25 21:31N 43°33' E 010°18'1010.6
2016-Aug-25 20:34N 43°24' E 010°12'2625.7
2016-Aug-25 19:34N 42°59' E 010°03'2625.7
2016-Aug-25 18:33N 42°34' E 009°57'1 0.1
2016-Aug-25 08:33N 42°33' E 009°58'2626.5
2016-Aug-25 07:34N 42°59' E 010°04'2626.4
2016-Aug-25 06:34N 43°25' E 010°11'9 4.7
2016-Aug-25 04:33N 43°33' E 010°18'5 4.7
2016-Aug-25 03:33N 43°29' E 010°14'2323.5
2016-Aug-25 02:34N 43°07' E 010°06'2423.4
2016-Aug-25 01:33N 42°44' E 009°59'54 5.4
2016-Aug-24 15:33N 41°50' E 009°59'3027.0
2016-Aug-24 14:27N 42°19' E 010°09'2726.6
2016-Aug-24 13:26N 42°42' E 010°29'27 2.0
2016-Aug-24 00:05N 42°30' E 009°57'1222.6
2016-Aug-23 23:33N 42°41' E 009°59'2323.1
2016-Aug-23 22:33N 43°04' E 010°05'2322.8
2016-Aug-23 21:34N 43°26' E 010°12'8 7.9
2016-Aug-23 20:32N 43°33' E 010°18'0 0.0
2016-Aug-23 19:31N 43°33' E 010°18'0 0.0
2016-Aug-23 18:31N 43°33' E 010°18'0 0.0
2016-Aug-23 17:31N 43°33' E 010°18'0 0.0
2016-Aug-23 16:33N 43°33' E 010°18'9 9.1
2016-Aug-23 15:33N 43°25' E 010°11'2625.6
2016-Aug-23 14:33N 43°00' E 010°04'2525.1
2016-Aug-23 13:33N 42°36' E 009°58'27 2.1
2016-Aug-23 00:34N 43°02' E 010°04'2626.2
2016-Aug-22 23:34N 43°28' E 010°12'7 6.6
2016-Aug-22 22:31N 43°33' E 010°18'0 0.0
2016-Aug-22 21:33N 43°33' E 010°18'6 6.2
2016-Aug-22 20:34N 43°28' E 010°13'2525.5
2016-Aug-22 19:34N 43°03' E 010°04'2525.2
2016-Aug-22 18:33N 42°39' E 009°58'2626.0
2016-Aug-22 17:34N 42°13' E 009°54'5125.4
2016-Aug-22 15:32N 41°22' E 009°46'10112.6
2016-Aug-22 07:34N 43°02' E 010°01'2626.5
2016-Aug-22 06:34N 43°27' E 010°11'8 7.7
2016-Aug-22 05:33N 43°33' E 010°18'0 0.0
2016-Aug-22 04:34N 43°33' E 010°18'6 5.8
2016-Aug-22 03:34N 43°29' E 010°13'2424.0
2016-Aug-22 02:33N 43°06' E 010°01'2323.5
2016-Aug-22 01:33N 42°43' E 009°54'28 2.8
2016-Aug-21 15:33N 42°17' E 010°09'2726.5
2016-Aug-21 14:33N 42°40' E 010°28'1615.3
2016-Aug-21 13:28N 42°56' E 010°33'4 4.1
2016-Aug-21 12:28N 42°52' E 010°33'10413.1
2016-Aug-21 04:34N 41°15' E 009°45'5426.6
2016-Aug-21 02:31N 42°08' E 009°53'3626.0
2016-Aug-21 01:08N 42°44' E 010°00'1626.4
2016-Aug-21 00:32N 42°60' E 010°03'2626.3
2016-Aug-20 23:34N 43°25' E 010°11'10 9.4
2016-Aug-20 22:31N 43°33' E 010°18'0 0.0
2016-Aug-20 21:31N 43°33' E 010°18'1314.0
2016-Aug-20 20:34N 43°21' E 010°10'2626.0
2016-Aug-20 19:33N 42°56' E 010°03'2826.2
2016-Aug-20 18:30N 42°28' E 009°57'2726.6
2016-Aug-20 17:29N 42°01' E 009°52'3325.8
2016-Aug-20 16:14N 41°29' E 009°47'1725.9
2016-Aug-20 15:33N 41°12' E 009°44'14 4.3
2016-Aug-20 12:17N 40°58' E 009°40'10726.1
2016-Aug-20 08:11N 42°44' E 010°01'1626.4
2016-Aug-20 07:34N 43°00' E 010°06'2626.1
2016-Aug-20 06:33N 43°26' E 010°12'9 8.6
2016-Aug-20 05:33N 43°33' E 010°18'0 0.0
2016-Aug-20 04:34N 43°33' E 010°18'6 5.9
2016-Aug-20 03:34N 43°28' E 010°13'2322.8
2016-Aug-20 02:34N 43°06' E 010°06'2323.3
2016-Aug-20 01:33N 42°43' E 010°00'10123.4
2016-Aug-19 21:16N 41°03' E 009°42'11 4.1
2016-Aug-19 18:30N 40°55' E 009°32'1617.0
2016-Aug-19 17:33N 41°04' E 009°50'  

Dump ship's entire track history